Time;durP1;ratioP1;P1;durP2;ratioP2;P2;SDS_P1;SDS_P2;PMS_P1;PMS_P2;Temp;Humidity;BMP_temperature;BMP_pressure;BME280_temperature;BME280_humidity;BME280_pressure;Samples;Min_cycle;Max_cycle;Signal;HPM_P1;HPM_P2
2020/12/04 00:00:32;;;;;;;13.30;8.17;;;5.90;52.00;;;;;;5030432;28;20391;-74
2020/12/04 00:02:58;;;;;;;11.00;7.93;;;5.90;51.00;;;;;;5030284;28;20428;-74
2020/12/04 00:05:23;;;;;;;9.90;7.47;;;5.90;50.80;;;;;;5030709;28;20391;-74
2020/12/04 00:07:49;;;;;;;11.60;7.87;;;5.90;53.10;;;;;;5036110;28;20397;-73
2020/12/04 00:10:14;;;;;;;16.27;8.07;;;5.90;53.20;;;;;;5050222;28;20750;-73
2020/12/04 00:12:40;;;;;;;10.27;7.72;;;5.90;53.40;;;;;;5049839;28;20879;-75
2020/12/04 00:15:07;;;;;;;11.80;8.43;;;5.90;54.40;;;;;;5049762;28;20382;-73
2020/12/04 00:17:33;;;;;;;12.75;8.30;;;5.90;55.70;;;;;;5049835;28;20390;-74
2020/12/04 00:19:59;;;;;;;11.15;7.65;;;5.80;58.20;;;;;;5049788;28;20492;-73
2020/12/04 00:22:24;;;;;;;13.30;8.10;;;5.70;58.90;;;;;;5036771;28;20402;-74
2020/12/04 00:24:50;;;;;;;12.77;8.80;;;5.60;61.00;;;;;;5029526;28;20384;-73
2020/12/04 00:27:16;;;;;;;12.30;8.40;;;5.60;59.80;;;;;;5030018;28;20401;-74
2020/12/04 00:29:41;;;;;;;13.18;8.05;;;5.60;60.20;;;;;;5029915;28;20379;-73
2020/12/04 00:32:07;;;;;;;14.40;8.10;;;5.70;60.40;;;;;;5028852;28;20449;-74
2020/12/04 00:34:33;;;;;;;10.67;8.10;;;5.60;59.50;;;;;;5042160;28;20386;-73
2020/12/04 00:36:58;;;;;;;12.13;7.90;;;5.60;60.40;;;;;;5039203;28;20402;-74
2020/12/04 00:39:24;;;;;;;10.13;7.70;;;5.70;59.00;;;;;;5030914;28;20387;-73
2020/12/04 00:41:49;;;;;;;10.67;7.50;;;5.70;58.70;;;;;;5046147;28;20408;-72
2020/12/04 00:44:15;;;;;;;12.30;8.60;;;5.60;60.70;;;;;;5049746;28;20389;-73
2020/12/04 00:46:40;;;;;;;13.35;8.02;;;5.60;60.40;;;;;;5050042;28;20385;-73
2020/12/04 00:49:06;;;;;;;13.05;7.82;;;5.60;62.00;;;;;;5049674;28;20381;-73
2020/12/04 00:51:32;;;;;;;12.25;7.90;;;5.60;61.00;;;;;;5032802;28;21035;-72
2020/12/04 00:53:58;;;;;;;12.40;8.00;;;5.70;59.90;;;;;;5029560;28;20749;-75
2020/12/04 00:56:30;;;;;;;9.85;7.43;;;5.60;61.70;;;;;;5030187;28;20398;-73
2020/12/04 00:58:56;;;;;;;10.95;7.43;;;5.60;61.40;;;;;;5030663;28;20383;-72
2020/12/04 01:01:21;;;;;;;10.43;7.18;;;5.60;61.10;;;;;;5029750;28;20744;-73
2020/12/04 01:03:47;;;;;;;12.10;7.80;;;5.60;62.00;;;;;;5029709;28;20394;-74
2020/12/04 01:06:12;;;;;;;13.60;7.93;;;5.60;62.90;;;;;;5031943;28;20394;-74
2020/12/04 01:08:38;;;;;;;10.80;7.60;;;5.50;64.60;;;;;;5049667;28;20954;-73
2020/12/04 01:11:04;;;;;;;17.23;8.27;;;5.50;66.20;;;;;;5050083;28;20389;-73
2020/12/04 01:13:30;;;;;;;9.88;8.00;;;5.50;65.90;;;;;;5049964;28;20523;-74
2020/12/04 01:15:55;;;;;;;10.60;7.40;;;5.50;66.40;;;;;;5049701;28;20464;-73
2020/12/04 01:18:21;;;;;;;11.57;7.77;;;5.50;64.60;;;;;;5049934;28;20401;-73
2020/12/04 01:20:46;;;;;;;11.60;8.20;;;5.50;66.70;;;;;;5032198;28;20452;-73
2020/12/04 01:23:12;;;;;;;14.20;8.43;;;5.50;67.10;;;;;;5028466;28;20465;-73
2020/12/04 01:25:37;;;;;;;13.07;8.27;;;5.50;66.20;;;;;;5030065;28;20383;-74
2020/12/04 01:28:03;;;;;;;10.63;8.00;;;5.50;66.30;;;;;;5035560;28;20891;-74
2020/12/04 01:30:29;;;;;;;10.45;7.40;;;5.60;66.90;;;;;;5033795;28;20438;-73
2020/12/04 01:32:54;;;;;;;10.77;8.00;;;5.50;65.30;;;;;;5033385;28;20618;-73
2020/12/04 01:35:20;;;;;;;13.10;8.40;;;5.50;65.90;;;;;;5051717;28;20446;-73
2020/12/04 01:37:45;;;;;;;9.88;7.40;;;5.60;64.70;;;;;;5053401;28;20385;-73
2020/12/04 01:40:11;;;;;;;10.82;7.88;;;5.50;66.50;;;;;;5053010;28;20400;-73
2020/12/04 01:42:36;;;;;;;13.50;8.68;;;5.50;67.90;;;;;;5044018;28;20414;-73
2020/12/04 01:45:02;;;;;;;10.97;8.03;;;5.50;68.10;;;;;;5032753;28;20486;-73
2020/12/04 01:47:28;;;;;;;12.55;8.68;;;5.40;67.80;;;;;;5033035;28;20399;-73
2020/12/04 01:49:54;;;;;;;14.50;8.80;;;5.50;65.30;;;;;;5032931;28;20436;-73
2020/12/04 01:52:19;;;;;;;10.00;7.67;;;5.50;65.40;;;;;;5031658;28;20911;-74
2020/12/04 01:54:48;;;;;;;11.23;7.73;;;5.50;64.60;;;;;;5032291;28;20748;-74
2020/12/04 01:57:20;;;;;;;11.00;8.27;;;5.50;64.70;;;;;;5032700;28;20387;-75
2020/12/04 01:59:46;;;;;;;11.15;8.60;;;5.50;66.00;;;;;;5032578;28;20868;-73
2020/12/04 02:02:22;;;;;;;12.48;8.90;;;5.40;66.30;;;;;;5032452;28;20485;-74
2020/12/04 02:04:50;;;;;;;12.40;8.70;;;5.50;67.80;;;;;;5032382;28;20387;-73
2020/12/04 02:07:40;;;;;;;14.00;8.30;;;5.40;66.90;;;;;;5032479;28;20427;-73
2020/12/04 02:10:20;;;;;;;11.98;8.20;;;5.50;64.00;;;;;;5032059;28;20394;-74
2020/12/04 02:12:47;;;;;;;11.07;8.30;;;5.40;64.70;;;;;;5032565;28;20379;-74
2020/12/04 02:15:14;;;;;;;11.60;8.73;;;5.50;63.80;;;;;;5032435;28;20417;-73
2020/12/04 02:17:40;;;;;;;10.85;8.00;;;5.50;62.90;;;;;;5031176;28;20529;-74
2020/12/04 02:20:06;;;;;;;10.88;8.02;;;5.50;62.60;;;;;;5032525;28;20399;-73
2020/12/04 02:22:36;;;;;;;9.60;7.20;;;5.50;62.20;;;;;;5032360;28;20484;-73
2020/12/04 02:25:07;;;;;;;10.88;7.85;;;5.50;60.10;;;;;;5031768;28;20429;-75
2020/12/04 02:27:33;;;;;;;10.40;7.03;;;5.60;59.30;;;;;;5032269;28;20486;-74
2020/12/04 02:29:58;;;;;;;10.20;7.90;;;5.50;60.30;;;;;;5031930;28;20846;-74
2020/12/04 02:32:24;;;;;;;10.93;7.85;;;5.60;60.20;;;;;;5031865;28;20391;-74
2020/12/04 02:34:50;;;;;;;9.70;7.80;;;5.60;60.00;;;;;;5044141;28;20443;-73
2020/12/04 02:37:15;;;;;;;8.60;7.70;;;5.50;59.90;;;;;;5031508;28;20427;-73
2020/12/04 02:39:41;;;;;;;10.10;7.57;;;5.50;60.60;;;;;;5031011;28;20751;-74
2020/12/04 02:42:06;;;;;;;9.55;7.18;;;5.60;61.90;;;;;;5049488;28;20401;-73
2020/12/04 02:44:32;;;;;;;9.75;7.60;;;5.60;57.70;;;;;;5051614;28;20390;-73
2020/12/04 02:46:58;;;;;;;9.00;7.40;;;5.60;58.70;;;;;;5051542;28;20793;-73
2020/12/04 02:49:24;;;;;;;9.20;6.50;;;5.60;58.90;;;;;;5048881;28;20390;-74
2020/12/04 02:51:50;;;;;;;10.27;7.50;;;5.60;58.90;;;;;;5031738;28;20919;-74
2020/12/04 02:54:17;;;;;;;10.35;7.00;;;5.60;58.60;;;;;;5031284;28;20385;-74
2020/12/04 02:56:43;;;;;;;8.65;6.70;;;5.50;59.30;;;;;;5031453;28;20868;-73
2020/12/04 02:59:09;;;;;;;9.80;7.63;;;5.50;58.60;;;;;;5031151;28;20395;-73
2020/12/04 03:01:35;;;;;;;9.57;7.35;;;5.60;58.60;;;;;;5031292;28;20433;-73
2020/12/04 03:04:01;;;;;;;8.82;7.15;;;5.60;58.60;;;;;;5032004;28;20395;-73
2020/12/04 03:06:26;;;;;;;11.00;8.07;;;5.60;59.20;;;;;;5032815;28;20383;-73
2020/12/04 03:08:52;;;;;;;8.50;6.43;;;5.60;59.50;;;;;;5051059;28;20385;-74
2020/12/04 03:11:23;;;;;;;8.57;6.83;;;5.60;58.20;;;;;;5051178;28;20742;-72
2020/12/04 03:13:49;;;;;;;7.83;6.73;;;5.60;57.90;;;;;;5050839;28;20476;-73
2020/12/04 03:16:15;;;;;;;9.23;6.80;;;5.60;57.70;;;;;;5049884;28;20644;-73
2020/12/04 03:18:41;;;;;;;7.78;6.97;;;5.50;58.40;;;;;;5030971;28;20407;-73
2020/12/04 03:21:07;;;;;;;8.20;6.77;;;5.60;57.30;;;;;;5031302;28;20390;-72
2020/12/04 03:23:32;;;;;;;7.80;6.78;;;5.50;58.00;;;;;;5030795;28;20403;-73
2020/12/04 03:25:58;;;;;;;9.75;6.97;;;5.50;57.80;;;;;;5033693;28;20486;-73
2020/12/04 03:28:23;;;;;;;10.90;6.90;;;5.50;58.20;;;;;;5030908;28;20379;-74
2020/12/04 03:30:49;;;;;;;8.40;6.70;;;5.60;57.70;;;;;;5031853;28;20391;-73
2020/12/04 03:33:15;;;;;;;9.30;6.80;;;5.60;58.10;;;;;;5032759;28;20790;-73
2020/12/04 03:35:40;;;;;;;9.07;7.10;;;5.70;58.00;;;;;;5051911;28;20393;-72
2020/12/04 03:38:06;;;;;;;8.57;6.60;;;5.60;58.10;;;;;;5052255;28;20377;-72
2020/12/04 03:40:31;;;;;;;12.18;7.20;;;5.60;57.10;;;;;;5051722;28;20762;-72
2020/12/04 03:42:57;;;;;;;9.10;6.82;;;5.60;57.90;;;;;;5051893;28;20456;-73
2020/12/04 03:45:22;;;;;;;7.20;5.60;;;5.70;57.90;;;;;;5046071;28;20399;-72
2020/12/04 03:47:48;;;;;;;8.82;6.75;;;5.70;56.80;;;;;;5031030;28;20387;-72
2020/12/04 03:50:13;;;;;;;8.45;6.65;;;5.70;57.40;;;;;;5030586;28;20741;-73
2020/12/04 03:52:39;;;;;;;8.53;6.53;;;5.70;56.90;;;;;;5030965;28;20463;-74
2020/12/04 03:55:06;;;;;;;8.40;6.60;;;5.80;56.60;;;;;;5031077;28;20409;-73
2020/12/04 03:57:31;;;;;;;8.07;6.65;;;5.80;56.40;;;;;;5031072;28;20919;-73
2020/12/04 03:59:57;;;;;;;10.33;7.37;;;5.90;55.40;;;;;;5030709;28;20410;-74
2020/12/04 04:02:22;;;;;;;8.05;5.97;;;5.90;56.00;;;;;;5031077;28;20410;-73
2020/12/04 04:04:48;;;;;;;8.40;6.70;;;6.00;54.90;;;;;;5030610;28;20429;-73
2020/12/04 04:07:13;;;;;;;8.10;6.60;;;6.00;54.90;;;;;;5036845;28;20750;-74
2020/12/04 04:09:39;;;;;;;7.97;5.93;;;6.00;55.40;;;;;;5031019;28;20709;-74
2020/12/04 04:12:04;;;;;;;8.33;6.43;;;6.00;55.00;;;;;;5030751;28;20398;-72
2020/12/04 04:14:30;;;;;;;6.70;5.80;;;6.00;56.00;;;;;;5030180;28;20448;-73
2020/12/04 04:16:56;;;;;;;9.33;6.87;;;5.90;56.40;;;;;;5030604;28;20391;-73
2020/12/04 04:19:21;;;;;;;8.03;6.30;;;6.00;55.80;;;;;;5030207;28;20407;-73
2020/12/04 04:21:47;;;;;;;8.20;6.70;;;6.00;56.50;;;;;;5030110;28;20410;-73
2020/12/04 04:24:12;;;;;;;7.80;6.00;;;6.00;56.80;;;;;;5029858;28;20391;-73
2020/12/04 04:26:38;;;;;;;7.10;5.75;;;6.00;56.60;;;;;;5030351;28;20390;-72
2020/12/04 04:29:04;;;;;;;6.90;5.40;;;6.00;57.20;;;;;;5032548;28;20434;-73
2020/12/04 04:31:29;;;;;;;6.70;5.88;;;6.00;57.00;;;;;;5030460;28;20391;-72
2020/12/04 04:33:55;;;;;;;6.07;5.47;;;6.10;55.40;;;;;;5036762;28;20393;-73
2020/12/04 04:36:21;;;;;;;5.57;5.00;;;6.10;55.40;;;;;;5045069;28;20393;-72
2020/12/04 04:38:46;;;;;;;6.50;5.03;;;6.10;55.10;;;;;;5030488;28;20404;-74
2020/12/04 04:41:14;;;;;;;6.68;5.15;;;6.10;56.20;;;;;;5029957;28;20466;-73
2020/12/04 04:43:39;;;;;;;7.28;5.40;;;6.10;56.80;;;;;;5028741;28;20387;-74
2020/12/04 04:46:16;;;;;;;5.93;5.32;;;6.20;56.00;;;;;;5029670;28;20415;-72
2020/12/04 04:48:47;;;;;;;5.65;4.65;;;6.20;56.20;;;;;;5030498;28;20383;-73
2020/12/04 04:51:14;;;;;;;5.25;4.75;;;6.20;56.30;;;;;;5032619;28;20395;-74
2020/12/04 04:53:43;;;;;;;6.20;5.20;;;6.20;56.40;;;;;;5029494;28;20923;-73
2020/12/04 04:56:08;;;;;;;5.50;4.93;;;6.20;56.50;;;;;;5029520;28;20379;-74
2020/12/04 04:58:34;;;;;;;6.47;5.03;;;6.30;54.90;;;;;;5029543;28;20438;-73
2020/12/04 05:00:59;;;;;;;6.70;5.33;;;6.30;54.50;;;;;;5028584;28;20898;-73
2020/12/04 05:03:25;;;;;;;7.40;5.70;;;6.30;56.10;;;;;;5033339;28;20502;-73
2020/12/04 05:05:51;;;;;;;7.07;5.10;;;6.30;55.30;;;;;;5035514;28;20426;-73
2020/12/04 05:08:22;;;;;;;8.75;5.60;;;6.30;55.40;;;;;;5049688;28;20413;-73
2020/12/04 05:10:49;;;;;;;6.97;5.68;;;6.30;55.00;;;;;;5053389;28;20382;-72
2020/12/04 05:13:19;;;;;;;5.72;4.68;;;6.30;55.80;;;;;;5053169;28;20381;-74
2020/12/04 05:15:45;;;;;;;7.70;5.50;;;6.30;54.90;;;;;;5053292;28;20732;-73
2020/12/04 05:18:11;;;;;;;6.07;5.03;;;6.40;54.90;;;;;;5053245;28;20471;-74
2020/12/04 05:20:52;;;;;;;5.30;4.80;;;6.40;54.30;;;;;;5034118;28;20409;-74
2020/12/04 05:23:19;;;;;;;6.00;5.40;;;6.40;55.20;;;;;;5033233;28;20411;-73
2020/12/04 05:25:49;;;;;;;7.63;5.75;;;6.30;55.20;;;;;;5032850;28;20394;-74
2020/12/04 05:28:17;;;;;;;6.20;5.60;;;6.40;54.20;;;;;;5031916;28;20879;-73
2020/12/04 05:30:50;;;;;;;5.47;4.55;;;6.30;55.40;;;;;;5033322;28;20387;-72
2020/12/04 05:33:16;;;;;;;5.63;5.00;;;6.40;55.00;;;;;;5036348;28;20484;-73
2020/12/04 05:35:43;;;;;;;5.50;4.90;;;6.40;55.00;;;;;;5053036;28;20477;-73
2020/12/04 05:38:14;;;;;;;6.07;5.25;;;6.40;53.80;;;;;;5053014;28;20959;-74
2020/12/04 05:40:45;;;;;;;5.63;5.07;;;6.40;54.60;;;;;;5053054;28;20425;-74
2020/12/04 05:43:12;;;;;;;8.73;5.13;;;6.40;55.00;;;;;;5052473;28;20397;-74
2020/12/04 05:45:38;;;;;;;6.15;4.82;;;6.40;54.80;;;;;;5051131;28;20676;-75
2020/12/04 05:48:15;;;;;;;6.28;5.15;;;6.40;55.30;;;;;;5042968;28;20899;-75
2020/12/04 05:50:42;;;;;;;5.60;4.83;;;6.40;55.60;;;;;;5033127;28;20895;-76
2020/12/04 05:53:11;;;;;;;6.87;4.50;;;6.40;55.40;;;;;;5031318;28;20865;-74
2020/12/04 05:55:37;;;;;;;6.97;4.90;;;6.40;54.60;;;;;;5031503;28;20760;-75
2020/12/04 05:58:07;;;;;;;6.80;5.10;;;6.40;54.80;;;;;;5037767;28;20387;-75
2020/12/04 06:00:33;;;;;;;5.68;4.65;;;6.40;54.60;;;;;;5038591;28;20394;-75
2020/12/04 06:03:04;;;;;;;5.50;4.90;;;6.50;54.50;;;;;;5037607;28;20437;-75
2020/12/04 06:05:31;;;;;;;6.15;4.78;;;6.50;54.50;;;;;;5036900;28;20386;-75
2020/12/04 06:08:04;;;;;;;5.47;4.90;;;6.50;55.90;;;;;;5051687;28;20842;-76
2020/12/04 06:10:33;;;;;;;5.18;4.40;;;6.50;55.30;;;;;;5055050;28;20393;-76
2020/12/04 06:12:59;;;;;;;4.53;4.13;;;6.50;55.20;;;;;;5053379;28;20451;-76
2020/12/04 06:15:30;;;;;;;9.50;4.75;;;6.50;56.10;;;;;;5050938;28;20447;-76
2020/12/04 06:18:06;;;;;;;4.45;4.05;;;6.50;56.40;;;;;;5033098;28;20429;-75
2020/12/04 06:20:47;;;;;;;5.00;4.25;;;6.50;55.30;;;;;;5033204;28;20884;-74
2020/12/04 06:23:16;;;;;;;4.10;3.80;;;6.50;54.40;;;;;;5031290;28;20433;-76
2020/12/04 06:25:50;;;;;;;6.30;3.95;;;6.50;56.40;;;;;;5032322;28;20941;-76
2020/12/04 06:28:17;;;;;;;4.25;3.85;;;6.60;55.20;;;;;;5031085;28;20433;-75
2020/12/04 06:31:03;;;;;;;3.83;3.40;;;6.50;55.40;;;;;;5035584;28;20470;-75
2020/12/04 06:33:50;;;;;;;4.32;3.92;;;6.60;55.70;;;;;;5036277;28;20377;-75
2020/12/04 06:36:31;;;;;;;4.28;3.88;;;6.60;55.70;;;;;;5052883;28;20723;-75
2020/12/04 06:38:57;;;;;;;3.85;3.55;;;6.60;56.20;;;;;;5053778;28;20760;-76
2020/12/04 06:41:32;;;;;;;3.60;3.30;;;6.60;56.50;;;;;;5051919;28;20417;-76
2020/12/04 06:44:07;;;;;;;4.32;3.78;;;6.70;56.30;;;;;;5050173;28;20490;-75
2020/12/04 06:46:37;;;;;;;4.70;3.95;;;6.70;56.70;;;;;;5033653;28;20826;-75
2020/12/04 06:49:44;;;;;;;3.47;3.17;;;6.70;57.50;;;;;;5032244;28;20383;-74
2020/12/04 06:52:17;;;;;;;3.90;3.60;;;6.70;56.90;;;;;;5031596;28;20486;-76
2020/12/04 06:54:48;;;;;;;3.90;3.50;;;6.60;56.90;;;;;;5030648;28;20430;-76
2020/12/04 06:57:20;;;;;;;3.72;3.42;;;6.70;57.20;;;;;;5032493;28;20813;-76
2020/12/04 06:59:46;;;;;;;3.70;3.40;;;6.70;57.70;;;;;;5031834;28;20395;-76
2020/12/04 07:02:20;;;;;;;6.43;3.42;;;6.70;57.80;;;;;;5030183;28;20434;-75
2020/12/04 07:04:50;;;;;;;3.45;3.15;;;6.80;57.20;;;;;;5031747;28;20432;-75
2020/12/04 07:07:21;;;;;;;3.35;3.05;;;6.70;58.60;;;;;;5039733;28;20393;-75
2020/12/04 07:10:00;;;;;;;4.47;3.60;;;6.70;59.00;;;;;;5029730;28;20525;-74
2020/12/04 07:12:27;;;;;;;4.03;3.30;;;6.80;59.10;;;;;;5030437;28;20423;-75
2020/12/04 07:14:54;;;;;;;3.10;2.80;;;6.80;58.20;;;;;;5030282;28;20397;-76
2020/12/04 07:17:25;;;;;;;3.80;3.50;;;6.80;58.60;;;;;;5030320;28;20398;-75
2020/12/04 07:19:52;;;;;;;4.45;3.55;;;6.80;58.90;;;;;;5030375;28;20435;-76
2020/12/04 07:22:20;;;;;;;3.05;2.70;;;6.90;58.50;;;;;;5030341;28;20932;-74
2020/12/04 07:24:46;;;;;;;5.22;3.63;;;6.90;58.10;;;;;;5029552;28;20446;-75
2020/12/04 07:27:14;;;;;;;4.05;3.47;;;6.90;58.30;;;;;;5035391;28;20401;-74
2020/12/04 07:29:40;;;;;;;2.95;2.75;;;6.90;59.20;;;;;;5050346;28;20396;-75
2020/12/04 07:32:06;;;;;;;3.80;3.20;;;6.90;59.10;;;;;;5050245;28;20386;-75
2020/12/04 07:34:36;;;;;;;3.20;2.90;;;6.90;59.20;;;;;;5050312;28;20390;-73
2020/12/04 07:37:02;;;;;;;4.50;2.80;;;6.90;58.50;;;;;;5049813;28;20389;-74
2020/12/04 07:39:48;;;;;;;2.75;2.55;;;6.90;58.90;;;;;;5050305;28;20389;-73
2020/12/04 07:42:14;;;;;;;7.53;3.80;;;7.00;58.40;;;;;;5048952;28;21283;-74
2020/12/04 07:44:41;;;;;;;4.63;3.40;;;7.10;58.30;;;;;;5048816;28;20450;-75
2020/12/04 07:47:15;;;;;;;3.20;2.90;;;7.10;58.30;;;;;;5051197;28;20894;-75
2020/12/04 07:49:46;;;;;;;3.20;2.90;;;7.20;58.90;;;;;;5047031;28;20413;-75
2020/12/04 07:52:19;;;;;;;3.10;2.90;;;7.20;57.80;;;;;;5031779;28;20468;-75
2020/12/04 07:54:45;;;;;;;3.30;3.00;;;7.30;57.30;;;;;;5030845;28;20402;-76
2020/12/04 07:57:12;;;;;;;6.22;4.43;;;7.30;57.20;;;;;;5032550;28;20390;-77
2020/12/04 07:59:39;;;;;;;2.88;2.67;;;7.40;57.80;;;;;;5032293;28;20919;-75
2020/12/04 08:02:06;;;;;;;3.13;2.78;;;7.40;58.50;;;;;;5032087;28;20745;-75
2020/12/04 08:04:33;;;;;;;6.80;5.20;;;7.40;58.70;;;;;;5030152;28;20395;-75
2020/12/04 08:07:12;;;;;;;3.10;2.80;;;7.40;59.30;;;;;;5037793;28;20377;-74
2020/12/04 08:09:40;;;;;;;2.63;2.42;;;7.30;58.80;;;;;;5033099;28;20832;-76
2020/12/04 08:12:21;;;;;;;3.50;3.03;;;7.30;59.60;;;;;;5030331;28;20402;-75
2020/12/04 08:14:55;;;;;;;2.80;2.50;;;7.30;59.40;;;;;;5031676;28;20419;-74
2020/12/04 08:17:23;;;;;;;2.60;2.40;;;7.40;59.00;;;;;;5039455;28;20405;-74
2020/12/04 08:19:50;;;;;;;3.00;2.70;;;7.40;58.60;;;;;;5037223;28;20413;-75
2020/12/04 08:22:24;;;;;;;5.18;2.40;;;7.40;58.90;;;;;;5029707;28;20463;-76
2020/12/04 08:25:02;;;;;;;2.47;2.28;;;7.40;59.30;;;;;;5042473;28;20394;-73
2020/12/04 08:27:29;;;;;;;2.70;2.50;;;7.40;59.00;;;;;;5030500;28;20390;-78
2020/12/04 08:30:06;;;;;;;3.58;2.85;;;7.40;59.00;;;;;;5034490;28;20452;-75
2020/12/04 08:32:31;;;;;;;2.15;2.00;;;7.40;59.50;;;;;;5037673;28;20403;-75
2020/12/04 08:35:08;;;;;;;2.70;2.40;;;7.30;58.60;;;;;;5029733;28;20529;-75
2020/12/04 08:37:34;;;;;;;2.72;2.50;;;7.40;60.00;;;;;;5030315;28;20745;-76
2020/12/04 08:40:00;;;;;;;3.20;2.40;;;7.50;59.20;;;;;;5038502;28;20400;-75
2020/12/04 08:42:34;;;;;;;3.37;2.20;;;7.50;58.20;;;;;;5049301;28;20937;-74
2020/12/04 08:45:08;;;;;;;2.97;2.38;;;7.50;58.00;;;;;;5038007;28;20401;-76
2020/12/04 08:47:39;;;;;;;2.10;2.00;;;7.60;57.30;;;;;;5029049;28;20443;-74
2020/12/04 08:50:06;;;;;;;2.20;2.00;;;7.60;56.90;;;;;;5034022;28;20741;-75
2020/12/04 08:52:42;;;;;;;3.60;2.10;;;7.70;56.90;;;;;;5029001;28;20786;-75
2020/12/04 08:55:16;;;;;;;2.22;2.03;;;7.70;56.40;;;;;;5032332;28;20405;-75
2020/12/04 08:57:43;;;;;;;2.40;2.10;;;7.80;55.50;;;;;;5034042;28;20601;-74
2020/12/04 09:00:15;;;;;;;2.60;2.10;;;7.80;55.30;;;;;;5034770;28;20393;-76
2020/12/04 09:02:41;;;;;;;3.08;2.13;;;8.00;54.90;;;;;;5031289;28;20457;-75
2020/12/04 09:05:12;;;;;;;2.90;2.35;;;7.90;55.30;;;;;;5046979;28;20598;-75
2020/12/04 09:07:38;;;;;;;2.80;1.75;;;7.90;56.00;;;;;;5039308;28;20410;-75
2020/12/04 09:10:05;;;;;;;2.90;2.10;;;7.90;54.60;;;;;;5036566;28;20383;-77
2020/12/04 09:12:31;;;;;;;2.58;2.38;;;8.00;55.30;;;;;;5032214;28;20899;-74
2020/12/04 09:14:56;;;;;;;3.83;1.80;;;7.90;54.90;;;;;;5041548;28;20397;-78
2020/12/04 09:17:22;;;;;;;3.00;2.00;;;7.90;54.50;;;;;;5030932;28;20393;-76
2020/12/04 09:19:48;;;;;;;4.03;2.38;;;8.00;54.70;;;;;;5033754;28;20950;-74
2020/12/04 09:22:15;;;;;;;4.30;1.30;;;8.00;55.20;;;;;;5032098;28;20407;-75
2020/12/04 09:24:41;;;;;;;2.40;2.10;;;8.20;53.50;;;;;;5031720;28;20903;-75
2020/12/04 09:27:06;;;;;;;2.10;1.90;;;8.20;53.30;;;;;;5047045;28;20389;-75
2020/12/04 09:29:32;;;;;;;1.77;1.50;;;8.30;53.40;;;;;;5045120;28;20403;-77
2020/12/04 09:32:22;;;;;;;5.90;1.70;;;8.30;53.70;;;;;;5046446;28;20805;-74
2020/12/04 09:34:49;;;;;;;2.33;1.73;;;8.30;53.10;;;;;;5050594;28;20396;-75
2020/12/04 09:37:35;;;;;;;1.75;1.65;;;8.30;54.00;;;;;;5038337;28;20395;-75
2020/12/04 09:40:08;;;;;;;3.50;1.90;;;8.40;53.90;;;;;;5028418;28;20403;-76
2020/12/04 09:42:33;;;;;;;4.20;2.60;;;8.40;52.80;;;;;;5028574;28;20403;-77
2020/12/04 09:45:00;;;;;;;4.55;2.60;;;8.40;53.40;;;;;;5031961;28;20903;-78
2020/12/04 09:47:26;;;;;;;4.30;2.00;;;8.50;53.30;;;;;;5044933;28;20855;-74
2020/12/04 09:49:52;;;;;;;2.80;2.03;;;8.60;52.00;;;;;;5054389;28;20431;-73
2020/12/04 09:52:19;;;;;;;7.50;1.90;;;8.50;52.40;;;;;;5043882;28;20394;-74
2020/12/04 09:54:47;;;;;;;1.73;1.63;;;8.40;52.80;;;;;;5037791;28;20868;-75
2020/12/04 09:57:13;;;;;;;2.95;1.85;;;8.50;52.40;;;;;;5037877;28;20757;-74
2020/12/04 09:59:40;;;;;;;2.92;2.28;;;8.40;52.60;;;;;;5036546;28;20407;-76
2020/12/04 10:02:07;;;;;;;2.67;1.58;;;8.40;52.70;;;;;;5035675;28;20429;-75
2020/12/04 10:04:33;;;;;;;1.83;1.73;;;8.40;52.30;;;;;;5035996;28;20915;-75
2020/12/04 10:06:58;;;;;;;3.55;1.90;;;8.50;52.60;;;;;;5041614;28;20408;-74
2020/12/04 10:09:25;;;;;;;2.30;2.10;;;8.40;52.70;;;;;;5055278;28;20476;-73
2020/12/04 10:11:51;;;;;;;3.78;1.80;;;8.40;53.10;;;;;;5035686;28;20430;-75
2020/12/04 10:14:17;;;;;;;2.80;1.60;;;8.50;53.10;;;;;;5051240;28;20436;-75
2020/12/04 10:16:44;;;;;;;5.32;2.20;;;8.60;52.30;;;;;;5036963;28;20406;-75
2020/12/04 10:19:16;;;;;;;3.35;1.80;;;8.80;50.50;;;;;;5035001;28;20395;-76
2020/12/04 10:21:42;;;;;;;4.82;2.00;;;8.90;50.10;;;;;;5042278;28;20421;-73
2020/12/04 10:24:08;;;;;;;2.97;1.45;;;9.00;49.20;;;;;;5036980;28;20807;-76
2020/12/04 10:26:45;;;;;;;2.30;1.80;;;9.10;48.00;;;;;;5039053;28;20403;-76
2020/12/04 10:29:11;;;;;;;3.65;1.55;;;9.20;48.10;;;;;;5036077;28;20815;-75
2020/12/04 10:31:37;;;;;;;2.73;1.90;;;9.30;47.10;;;;;;5039913;28;20389;-74
2020/12/04 10:34:03;;;;;;;1.52;1.38;;;9.40;45.70;;;;;;5035739;28;20873;-74
2020/12/04 10:36:30;;;;;;;6.38;1.85;;;9.30;46.40;;;;;;5032093;28;20792;-72
2020/12/04 10:38:56;;;;;;;2.58;1.40;;;9.40;46.80;;;;;;5031313;28;20387;-73
2020/12/04 10:41:22;;;;;;;1.77;1.55;;;9.40;45.90;;;;;;5031520;28;20402;-75
2020/12/04 10:43:49;;;;;;;4.33;1.80;;;9.50;46.00;;;;;;5031180;28;20398;-73
2020/12/04 10:46:15;;;;;;;2.30;1.80;;;9.50;45.50;;;;;;5044705;28;20886;-75
2020/12/04 10:48:41;;;;;;;3.58;1.52;;;9.50;44.30;;;;;;5043450;28;20399;-75
2020/12/04 10:51:06;;;;;;;2.20;1.30;;;9.40;45.90;;;;;;5034577;28;20920;-74
2020/12/04 10:53:32;;;;;;;2.33;1.50;;;9.40;45.00;;;;;;5040057;28;20424;-78
2020/12/04 10:55:57;;;;;;;2.47;1.40;;;9.40;44.50;;;;;;5044050;28;20435;-74
2020/12/04 10:58:23;;;;;;;6.10;1.90;;;9.30;44.90;;;;;;5054082;28;20388;-76
2020/12/04 11:00:50;;;;;;;2.07;1.90;;;9.20;46.20;;;;;;5042281;28;20850;-75
2020/12/04 11:06:11;;;;;;;3.03;1.63;;;9.30;45.80;;;;;;5032296;28;20399;-74
2020/12/04 11:08:37;;;;;;;2.83;1.67;;;9.40;46.30;;;;;;5044440;28;20436;-76
2020/12/04 11:11:02;;;;;;;2.50;1.77;;;9.40;44.50;;;;;;5054743;28;20533;-77
2020/12/04 11:13:28;;;;;;;2.47;1.92;;;9.40;44.20;;;;;;5053603;28;20469;-75
2020/12/04 11:15:53;;;;;;;4.70;1.60;;;9.30;45.50;;;;;;5036763;28;20391;-78
2020/12/04 11:18:19;;;;;;;2.05;1.85;;;9.30;45.90;;;;;;5032983;28;20875;-77
2020/12/04 11:20:44;;;;;;;1.92;1.50;;;9.30;46.10;;;;;;5033092;28;20411;-75
2020/12/04 11:23:10;;;;;;;2.70;1.60;;;9.50;44.40;;;;;;5032803;28;20486;-76
2020/12/04 11:25:36;;;;;;;3.70;1.80;;;9.50;44.40;;;;;;5032859;28;20391;-76
2020/12/04 11:28:01;;;;;;;4.68;1.90;;;9.50;44.70;;;;;;5031116;28;20390;-77
2020/12/04 11:30:27;;;;;;;3.42;1.80;;;9.50;45.00;;;;;;5033069;28;20399;-77
2020/12/04 11:32:52;;;;;;;3.47;2.15;;;9.50;45.50;;;;;;5034195;28;20397;-76
2020/12/04 11:35:19;;;;;;;2.25;1.80;;;9.50;45.90;;;;;;5051574;28;20420;-77
2020/12/04 11:37:48;;;;;;;2.42;1.80;;;9.40;45.20;;;;;;5053652;28;20397;-74
2020/12/04 11:40:16;;;;;;;1.55;1.45;;;9.40;46.10;;;;;;5038401;28;20488;-75
2020/12/04 11:42:43;;;;;;;1.80;1.60;;;9.40;45.80;;;;;;5032580;28;20482;-76
2020/12/04 11:45:11;;;;;;;4.40;1.60;;;9.40;46.60;;;;;;5031911;28;20430;-74
2020/12/04 11:47:38;;;;;;;3.45;1.50;;;9.50;45.70;;;;;;5032931;28;20386;-76
2020/12/04 11:50:12;;;;;;;2.50;1.67;;;9.60;45.00;;;;;;5036110;28;20828;-78
2020/12/04 11:52:38;;;;;;;5.70;2.00;;;9.70;45.30;;;;;;5037755;28;20404;-76
2020/12/04 11:55:04;;;;;;;2.58;1.60;;;9.80;43.90;;;;;;5043375;28;20879;-77
2020/12/04 11:57:30;;;;;;;3.30;1.70;;;9.90;42.90;;;;;;5029391;28;20855;-76
2020/12/04 11:59:56;;;;;;;1.55;1.40;;;10.00;43.50;;;;;;5034826;28;20482;-76
2020/12/04 12:02:21;;;;;;;4.50;2.00;;;10.10;42.20;;;;;;5033699;28;20403;-76
2020/12/04 12:04:47;;;;;;;2.40;1.80;;;10.00;43.00;;;;;;5032268;28;20427;-75
2020/12/04 12:07:12;;;;;;;2.10;1.80;;;10.00;44.30;;;;;;5037783;28;20417;-76
2020/12/04 12:09:38;;;;;;;7.28;2.30;;;9.90;44.80;;;;;;5033859;28;20904;-75
2020/12/04 12:12:04;;;;;;;3.22;2.00;;;9.90;46.00;;;;;;5031900;28;20411;-75
2020/12/04 12:14:30;;;;;;;2.47;1.92;;;9.80;45.70;;;;;;5040974;28;20889;-74
2020/12/04 12:16:55;;;;;;;3.45;2.10;;;9.80;46.30;;;;;;5050824;28;20397;-77
2020/12/04 12:19:21;;;;;;;3.10;1.40;;;9.70;46.20;;;;;;5041810;28;20422;-75
2020/12/04 12:21:48;;;;;;;4.03;1.70;;;9.80;43.40;;;;;;5028545;28;20395;-76
2020/12/04 12:24:14;;;;;;;3.67;1.90;;;9.80;43.90;;;;;;5030568;28;20402;-75
2020/12/04 12:26:40;;;;;;;1.85;1.30;;;9.90;43.00;;;;;;5029961;28;20415;-75
2020/12/04 12:29:06;;;;;;;3.53;1.70;;;9.90;42.00;;;;;;5030741;28;20532;-75
2020/12/04 12:31:31;;;;;;;4.20;1.90;;;10.00;41.60;;;;;;5030848;28;20385;-76
2020/12/04 12:34:00;;;;;;;2.60;1.50;;;10.10;39.80;;;;;;5031488;28;20509;-74
2020/12/04 12:36:26;;;;;;;2.00;1.50;;;10.20;40.30;;;;;;5031598;28;20403;-76
2020/12/04 12:38:57;;;;;;;2.43;1.40;;;10.20;39.60;;;;;;5039019;28;20556;-76
2020/12/04 12:41:23;;;;;;;5.25;1.80;;;10.20;38.40;;;;;;5047499;28;20746;-76
2020/12/04 12:43:49;;;;;;;2.33;1.50;;;10.10;39.40;;;;;;5047422;28;20456;-75
2020/12/04 12:46:14;;;;;;;4.22;1.63;;;10.10;39.50;;;;;;5028720;28;20391;-75
2020/12/04 12:48:40;;;;;;;1.67;1.57;;;10.00;41.10;;;;;;5038466;28;20385;-75
2020/12/04 12:51:06;;;;;;;1.20;1.10;;;9.90;43.40;;;;;;5031715;28;20397;-77
2020/12/04 12:53:31;;;;;;;3.73;1.30;;;9.90;41.00;;;;;;5030109;28;20387;-75
2020/12/04 12:55:57;;;;;;;3.30;1.30;;;9.70;40.20;;;;;;5029635;28;20403;-76
2020/12/04 12:58:22;;;;;;;3.60;1.70;;;9.80;41.50;;;;;;5030633;28;20767;-77
2020/12/04 13:00:48;;;;;;;3.77;1.70;;;9.70;43.60;;;;;;5039482;28;20387;-75